Terminal Aerodrome Forecast
Issued by NWS

Home | Current Version | Previous Version | Text Only | Print | Product List | Glossary On
Versions: 1 2 3 4 5 6 7 8 9 10 11 12 13 14 15
000
FTUS45 KTFX 232300
TAFHVR
TAF
KHVR 232335Z 2400/2424 26025G35KT P6SM BKN120
     FM240300 26015KT P6SM SCT150
     FM242000 24010G20KT P6SM BKN070=

USA.gov is the U.S. government's official web portal to all federal, state and local government web resources and services.